sensor_id;sensor_type;location;lat;lon;timestamp;temperature;humidity
60242;SHT30;46103;52.076;113.488;2023-04-19T00:02:30;-0.15;82.15
60242;SHT30;46103;52.076;113.488;2023-04-19T00:05:37;0.09;81.45
60242;SHT30;46103;52.076;113.488;2023-04-19T00:08:41;0.46;81.22
60242;SHT30;46103;52.076;113.488;2023-04-19T00:11:47;0.58;79.21
60242;SHT30;46103;52.076;113.488;2023-04-19T00:14:50;0.72;78.90
60242;SHT30;46103;52.076;113.488;2023-04-19T00:17:56;0.91;78.45
60242;SHT30;46103;52.076;113.488;2023-04-19T00:21:02;1.13;78.01
60242;SHT30;46103;52.076;113.488;2023-04-19T00:24:07;1.23;77.54
60242;SHT30;46103;52.076;113.488;2023-04-19T00:27:12;1.39;76.88
60242;SHT30;46103;52.076;113.488;2023-04-19T00:30:18;1.48;76.24
60242;SHT30;46103;52.076;113.488;2023-04-19T00:33:22;1.61;75.68
60242;SHT30;46103;52.076;113.488;2023-04-19T00:36:31;1.70;75.69
60242;SHT30;46103;52.076;113.488;2023-04-19T00:39:35;1.70;75.25
60242;SHT30;46103;52.076;113.488;2023-04-19T00:42:52;1.67;75.45
60242;SHT30;46103;52.076;113.488;2023-04-19T00:45:55;1.61;75.08
60242;SHT30;46103;52.076;113.488;2023-04-19T00:48:59;1.68;75.34
60242;SHT30;46103;52.076;113.488;2023-04-19T00:52:03;1.85;75.12
60242;SHT30;46103;52.076;113.488;2023-04-19T00:55:08;2.01;74.92
60242;SHT30;46103;52.076;113.488;2023-04-19T00:58:14;2.23;74.26
60242;SHT30;46103;52.076;113.488;2023-04-19T01:01:21;2.26;73.18
60242;SHT30;46103;52.076;113.488;2023-04-19T01:04:29;2.26;73.37
60242;SHT30;46103;52.076;113.488;2023-04-19T01:07:37;2.33;73.50
60242;SHT30;46103;52.076;113.488;2023-04-19T01:10:45;2.33;73.62
60242;SHT30;46103;52.076;113.488;2023-04-19T01:13:52;2.40;72.88
60242;SHT30;46103;52.076;113.488;2023-04-19T01:17:01;2.40;72.59
60242;SHT30;46103;52.076;113.488;2023-04-19T01:20:08;2.48;72.96
60242;SHT30;46103;52.076;113.488;2023-04-19T01:23:15;2.54;72.87
60242;SHT30;46103;52.076;113.488;2023-04-19T01:26:25;2.65;72.98
60242;SHT30;46103;52.076;113.488;2023-04-19T01:29:33;2.78;71.43
60242;SHT30;46103;52.076;113.488;2023-04-19T01:32:43;2.71;71.27
60242;SHT30;46103;52.076;113.488;2023-04-19T01:35:51;2.74;72.05
60242;SHT30;46103;52.076;113.488;2023-04-19T01:39:00;2.98;70.69
60242;SHT30;46103;52.076;113.488;2023-04-19T01:42:07;3.20;70.93
60242;SHT30;46103;52.076;113.488;2023-04-19T01:45:10;3.41;69.49
60242;SHT30;46103;52.076;113.488;2023-04-19T01:48:15;3.73;68.39
60242;SHT30;46103;52.076;113.488;2023-04-19T01:51:23;3.99;68.43
60242;SHT30;46103;52.076;113.488;2023-04-19T01:54:33;4.52;66.54
60242;SHT30;46103;52.076;113.488;2023-04-19T01:57:39;4.80;65.04
60242;SHT30;46103;52.076;113.488;2023-04-19T02:00:45;5.04;64.41
60242;SHT30;46103;52.076;113.488;2023-04-19T02:03:52;4.91;64.41
60242;SHT30;46103;52.076;113.488;2023-04-19T02:07:01;4.65;64.80
60242;SHT30;46103;52.076;113.488;2023-04-19T02:10:13;4.61;65.37
60242;SHT30;46103;52.076;113.488;2023-04-19T02:13:23;4.72;65.01
60242;SHT30;46103;52.076;113.488;2023-04-19T02:16:27;4.93;64.76
60242;SHT30;46103;52.076;113.488;2023-04-19T02:19:32;5.22;65.04
60242;SHT30;46103;52.076;113.488;2023-04-19T02:22:36;5.81;63.91
60242;SHT30;46103;52.076;113.488;2023-04-19T02:25:40;6.39;62.25
60242;SHT30;46103;52.076;113.488;2023-04-19T02:28:44;6.85;59.39
60242;SHT30;46103;52.076;113.488;2023-04-19T02:31:48;6.78;59.26
60242;SHT30;46103;52.076;113.488;2023-04-19T02:34:55;6.52;58.22
60242;SHT30;46103;52.076;113.488;2023-04-19T02:38:01;6.54;58.66
60242;SHT30;46103;52.076;113.488;2023-04-19T02:41:07;6.81;58.82
60242;SHT30;46103;52.076;113.488;2023-04-19T02:44:13;7.49;55.99
60242;SHT30;46103;52.076;113.488;2023-04-19T02:47:17;7.52;55.29
60242;SHT30;46103;52.076;113.488;2023-04-19T02:50:21;7.40;56.18
60242;SHT30;46103;52.076;113.488;2023-04-19T02:53:26;7.33;57.79
60242;SHT30;46103;52.076;113.488;2023-04-19T02:56:29;7.36;57.32
60242;SHT30;46103;52.076;113.488;2023-04-19T02:59:35;7.26;58.39
60242;SHT30;46103;52.076;113.488;2023-04-19T03:02:40;7.49;55.73
60242;SHT30;46103;52.076;113.488;2023-04-19T03:05:46;7.46;56.95
60242;SHT30;46103;52.076;113.488;2023-04-19T03:08:50;7.64;57.42
60242;SHT30;46103;52.076;113.488;2023-04-19T03:11:54;7.42;58.94
60242;SHT30;46103;52.076;113.488;2023-04-19T03:14:58;7.33;58.12
60242;SHT30;46103;52.076;113.488;2023-04-19T03:18:04;6.64;59.51
60242;SHT30;46103;52.076;113.488;2023-04-19T03:21:09;5.99;59.42
60242;SHT30;46103;52.076;113.488;2023-04-19T03:24:29;5.88;62.50
60242;SHT30;46103;52.076;113.488;2023-04-19T03:27:45;6.34;61.63
60242;SHT30;46103;52.076;113.488;2023-04-19T03:31:02;6.52;59.96
60242;SHT30;46103;52.076;113.488;2023-04-19T03:34:06;6.06;60.74
60242;SHT30;46103;52.076;113.488;2023-04-19T03:37:14;5.66;61.71
60242;SHT30;46103;52.076;113.488;2023-04-19T03:40:19;5.23;64.49
60242;SHT30;46103;52.076;113.488;2023-04-19T03:43:23;5.01;65.95
60242;SHT30;46103;52.076;113.488;2023-04-19T03:46:31;4.74;64.95
60242;SHT30;46103;52.076;113.488;2023-04-19T03:49:41;4.34;66.44
60242;SHT30;46103;52.076;113.488;2023-04-19T03:52:50;4.33;65.95
60242;SHT30;46103;52.076;113.488;2023-04-19T03:56:00;4.34;66.29
60242;SHT30;46103;52.076;113.488;2023-04-19T03:59:11;4.49;66.29
60242;SHT30;46103;52.076;113.488;2023-04-19T04:02:19;4.25;65.08
60242;SHT30;46103;52.076;113.488;2023-04-19T04:05:28;4.01;65.27
60242;SHT30;46103;52.076;113.488;2023-04-19T04:08:38;4.05;65.73
60242;SHT30;46103;52.076;113.488;2023-04-19T04:11:45;4.01;65.55
60242;SHT30;46103;52.076;113.488;2023-04-19T04:14:55;3.84;64.68
60242;SHT30;46103;52.076;113.488;2023-04-19T04:18:06;3.78;64.17
60242;SHT30;46103;52.076;113.488;2023-04-19T04:21:19;3.66;62.99
60242;SHT30;46103;52.076;113.488;2023-04-19T04:24:39;3.27;61.05
60242;SHT30;46103;52.076;113.488;2023-04-19T04:27:59;3.03;60.77
60242;SHT30;46103;52.076;113.488;2023-04-19T04:31:07;3.34;61.49
60242;SHT30;46103;52.076;113.488;2023-04-19T04:34:19;3.11;60.00
60242;SHT30;46103;52.076;113.488;2023-04-19T04:37:34;2.88;60.87
60242;SHT30;46103;52.076;113.488;2023-04-19T04:40:43;2.88;59.39
60242;SHT30;46103;52.076;113.488;2023-04-19T04:44:00;2.81;60.11
60242;SHT30;46103;52.076;113.488;2023-04-19T04:47:19;2.88;58.68
60242;SHT30;46103;52.076;113.488;2023-04-19T04:50:30;2.81;59.44
60242;SHT30;46103;52.076;113.488;2023-04-19T04:53:40;2.75;59.05
60242;SHT30;46103;52.076;113.488;2023-04-19T04:56:48;2.89;58.51
60242;SHT30;46103;52.076;113.488;2023-04-19T04:59:55;2.95;58.09
60242;SHT30;46103;52.076;113.488;2023-04-19T05:03:10;3.26;59.10
60242;SHT30;46103;52.076;113.488;2023-04-19T05:06:26;2.99;58.45
60242;SHT30;46103;52.076;113.488;2023-04-19T05:09:36;2.85;56.86
60242;SHT30;46103;52.076;113.488;2023-04-19T05:12:49;2.71;57.59
60242;SHT30;46103;52.076;113.488;2023-04-19T05:16:01;2.74;56.85
60242;SHT30;46103;52.076;113.488;2023-04-19T05:19:10;2.65;59.54
60242;SHT30;46103;52.076;113.488;2023-04-19T05:22:24;2.93;58.92
60242;SHT30;46103;52.076;113.488;2023-04-19T05:25:35;3.09;59.22
60242;SHT30;46103;52.076;113.488;2023-04-19T05:28:45;2.99;60.18
60242;SHT30;46103;52.076;113.488;2023-04-19T05:32:11;3.11;62.10
60242;SHT30;46103;52.076;113.488;2023-04-19T05:35:30;3.27;60.18
60242;SHT30;46103;52.076;113.488;2023-04-19T05:38:36;3.70;59.66
60242;SHT30;46103;52.076;113.488;2023-04-19T05:41:44;3.85;55.96
60242;SHT30;46103;52.076;113.488;2023-04-19T05:44:53;3.46;56.23
60242;SHT30;46103;52.076;113.488;2023-04-19T05:48:13;3.43;57.00
60242;SHT30;46103;52.076;113.488;2023-04-19T05:51:47;3.29;53.50
60242;SHT30;46103;52.076;113.488;2023-04-19T05:55:15;3.37;55.07
60242;SHT30;46103;52.076;113.488;2023-04-19T05:58:23;3.36;55.18
60242;SHT30;46103;52.076;113.488;2023-04-19T06:01:32;3.36;54.46
60242;SHT30;46103;52.076;113.488;2023-04-19T06:04:53;3.27;54.42
60242;SHT30;46103;52.076;113.488;2023-04-19T06:08:15;3.37;53.21
60242;SHT30;46103;52.076;113.488;2023-04-19T06:11:25;3.34;55.25
60242;SHT30;46103;52.076;113.488;2023-04-19T06:14:47;3.47;54.85
60242;SHT30;46103;52.076;113.488;2023-04-19T06:17:58;3.34;53.73
60242;SHT30;46103;52.076;113.488;2023-04-19T06:21:08;2.89;54.48
60242;SHT30;46103;52.076;113.488;2023-04-19T06:24:17;2.84;54.99
60242;SHT30;46103;52.076;113.488;2023-04-19T06:27:27;2.61;54.65
60242;SHT30;46103;52.076;113.488;2023-04-19T06:30:49;2.70;55.55
60242;SHT30;46103;52.076;113.488;2023-04-19T06:34:11;2.99;55.65
60242;SHT30;46103;52.076;113.488;2023-04-19T06:37:25;3.36;55.30
60242;SHT30;46103;52.076;113.488;2023-04-19T06:40:32;3.16;55.20
60242;SHT30;46103;52.076;113.488;2023-04-19T06:43:39;3.20;56.68
60242;SHT30;46103;52.076;113.488;2023-04-19T06:46:47;3.41;57.29
60242;SHT30;46103;52.076;113.488;2023-04-19T06:49:56;3.54;57.27
60242;SHT30;46103;52.076;113.488;2023-04-19T06:53:03;3.87;56.53
60242;SHT30;46103;52.076;113.488;2023-04-19T06:56:09;4.16;57.28
60242;SHT30;46103;52.076;113.488;2023-04-19T06:59:19;4.60;54.51
60242;SHT30;46103;52.076;113.488;2023-04-19T07:02:27;4.71;54.66
60242;SHT30;46103;52.076;113.488;2023-04-19T07:05:36;4.67;53.05
60242;SHT30;46103;52.076;113.488;2023-04-19T07:08:45;4.58;53.65
60242;SHT30;46103;52.076;113.488;2023-04-19T07:11:52;4.37;52.87
60242;SHT30;46103;52.076;113.488;2023-04-19T07:14:55;4.15;54.59
60242;SHT30;46103;52.076;113.488;2023-04-19T07:18:00;4.25;54.45
60242;SHT30;46103;52.076;113.488;2023-04-19T07:21:03;4.58;51.98
60242;SHT30;46103;52.076;113.488;2023-04-19T07:24:07;4.80;53.06
60242;SHT30;46103;52.076;113.488;2023-04-19T07:27:11;5.57;54.48
60242;SHT30;46103;52.076;113.488;2023-04-19T07:30:19;5.85;55.09
60242;SHT30;46103;52.076;113.488;2023-04-19T07:33:23;5.91;55.00
60242;SHT30;46103;52.076;113.488;2023-04-19T07:36:33;5.91;54.14
60242;SHT30;46103;52.076;113.488;2023-04-19T07:39:38;6.18;53.15
60242;SHT30;46103;52.076;113.488;2023-04-19T07:42:42;6.12;52.45
60242;SHT30;46103;52.076;113.488;2023-04-19T07:45:46;5.95;50.74
60242;SHT30;46103;52.076;113.488;2023-04-19T07:48:50;5.87;51.00
60242;SHT30;46103;52.076;113.488;2023-04-19T07:51:53;5.81;51.78
60242;SHT30;46103;52.076;113.488;2023-04-19T07:54:57;6.21;52.24
60242;SHT30;46103;52.076;113.488;2023-04-19T07:58:01;6.40;49.70
60242;SHT30;46103;52.076;113.488;2023-04-19T08:01:07;6.50;50.62
60242;SHT30;46103;52.076;113.488;2023-04-19T08:04:12;6.63;49.40
60242;SHT30;46103;52.076;113.488;2023-04-19T08:07:17;6.05;50.77
60242;SHT30;46103;52.076;113.488;2023-04-19T08:10:21;6.11;50.72
60242;SHT30;46103;52.076;113.488;2023-04-19T08:13:25;5.88;50.54
60242;SHT30;46103;52.076;113.488;2023-04-19T08:16:43;5.49;49.57
60242;SHT30;46103;52.076;113.488;2023-04-19T08:20:01;5.54;48.95
60242;SHT30;46103;52.076;113.488;2023-04-19T08:23:05;5.46;45.35
60242;SHT30;46103;52.076;113.488;2023-04-19T08:26:28;4.80;45.72
60242;SHT30;46103;52.076;113.488;2023-04-19T08:29:48;4.40;48.03
60242;SHT30;46103;52.076;113.488;2023-04-19T08:32:52;2.96;63.41
60242;SHT30;46103;52.076;113.488;2023-04-19T08:35:59;1.60;72.41
60242;SHT30;46103;52.076;113.488;2023-04-19T08:39:02;0.97;75.29
60242;SHT30;46103;52.076;113.488;2023-04-19T08:42:18;0.64;75.79
60242;SHT30;46103;52.076;113.488;2023-04-19T08:45:38;0.62;75.13
60242;SHT30;46103;52.076;113.488;2023-04-19T08:48:44;0.85;71.94
60242;SHT30;46103;52.076;113.488;2023-04-19T08:51:48;1.03;70.39
60242;SHT30;46103;52.076;113.488;2023-04-19T08:54:53;0.92;74.32
60242;SHT30;46103;52.076;113.488;2023-04-19T08:57:57;0.79;75.52
60242;SHT30;46103;52.076;113.488;2023-04-19T09:01:05;0.85;73.81
60242;SHT30;46103;52.076;113.488;2023-04-19T09:04:09;1.03;72.48
60242;SHT30;46103;52.076;113.488;2023-04-19T09:07:32;1.29;69.65
60242;SHT30;46103;52.076;113.488;2023-04-19T09:10:51;1.47;67.17
60242;SHT30;46103;52.076;113.488;2023-04-19T09:14:13;1.60;66.04
60242;SHT30;46103;52.076;113.488;2023-04-19T09:17:16;1.52;65.97
60242;SHT30;46103;52.076;113.488;2023-04-19T09:20:35;1.50;69.28
60242;SHT30;46103;52.076;113.488;2023-04-19T09:23:45;1.29;72.82
60242;SHT30;46103;52.076;113.488;2023-04-19T09:26:53;0.76;78.69
60242;SHT30;46103;52.076;113.488;2023-04-19T09:29:59;0.16;80.41
60242;SHT30;46103;52.076;113.488;2023-04-19T09:33:06;-0.33;83.03
60242;SHT30;46103;52.076;113.488;2023-04-19T09:36:28;-0.49;85.72
60242;SHT30;46103;52.076;113.488;2023-04-19T09:39:32;-0.46;85.73
60242;SHT30;46103;52.076;113.488;2023-04-19T09:42:46;0.31;84.87
60242;SHT30;46103;52.076;113.488;2023-04-19T09:45:57;1.51;77.08
60242;SHT30;46103;52.076;113.488;2023-04-19T09:52:43;2.22;70.57
60242;SHT30;46103;52.076;113.488;2023-04-19T09:55:48;2.12;70.06
60242;SHT30;46103;52.076;113.488;2023-04-19T09:59:04;2.15;68.53
60242;SHT30;46103;52.076;113.488;2023-04-19T10:02:35;1.79;68.83
60242;SHT30;46103;52.076;113.488;2023-04-19T10:05:40;1.30;70.88
60242;SHT30;46103;52.076;113.488;2023-04-19T10:08:45;0.89;71.63
60242;SHT30;46103;52.076;113.488;2023-04-19T10:11:51;0.53;73.98
60242;SHT30;46103;52.076;113.488;2023-04-19T10:15:06;0.65;74.39
60242;SHT30;46103;52.076;113.488;2023-04-19T10:18:11;1.22;70.65
60242;SHT30;46103;52.076;113.488;2023-04-19T10:21:15;1.94;66.02
60242;SHT30;46103;52.076;113.488;2023-04-19T10:24:22;3.03;60.24
60242;SHT30;46103;52.076;113.488;2023-04-19T10:27:25;3.75;58.20
60242;SHT30;46103;52.076;113.488;2023-04-19T10:30:29;5.28;53.38
60242;SHT30;46103;52.076;113.488;2023-04-19T10:33:34;6.47;48.40
60242;SHT30;46103;52.076;113.488;2023-04-19T10:36:38;7.26;41.04
60242;SHT30;46103;52.076;113.488;2023-04-19T10:39:43;6.29;35.62
60242;SHT30;46103;52.076;113.488;2023-04-19T10:46:15;4.64;35.92
60242;SHT30;46103;52.076;113.488;2023-04-19T10:49:22;4.15;35.10
60242;SHT30;46103;52.076;113.488;2023-04-19T10:52:27;4.29;33.95
60242;SHT30;46103;52.076;113.488;2023-04-19T10:55:32;4.44;32.94
60242;SHT30;46103;52.076;113.488;2023-04-19T11:05:28;3.87;33.21
60242;SHT30;46103;52.076;113.488;2023-04-19T11:08:33;3.73;32.80
60242;SHT30;46103;52.076;113.488;2023-04-19T11:11:38;3.39;33.61
60242;SHT30;46103;52.076;113.488;2023-04-19T11:14:56;3.06;32.76
60242;SHT30;46103;52.076;113.488;2023-04-19T11:18:13;2.60;33.60
60242;SHT30;46103;52.076;113.488;2023-04-19T11:21:21;1.74;34.93
60242;SHT30;46103;52.076;113.488;2023-04-19T11:24:34;1.02;36.29
60242;SHT30;46103;52.076;113.488;2023-04-19T11:27:49;0.75;35.95
60242;SHT30;46103;52.076;113.488;2023-04-19T11:30:54;0.46;36.49
60242;SHT30;46103;52.076;113.488;2023-04-19T11:33:58;0.24;37.53
60242;SHT30;46103;52.076;113.488;2023-04-19T11:37:03;0.05;37.30
60242;SHT30;46103;52.076;113.488;2023-04-19T11:40:16;-0.10;37.14
60242;SHT30;46103;52.076;113.488;2023-04-19T11:43:20;-0.26;37.16
60242;SHT30;46103;52.076;113.488;2023-04-19T11:51:57;-0.43;37.68
60242;SHT30;46103;52.076;113.488;2023-04-19T11:56:34;-0.49;37.25
60242;SHT30;46103;52.076;113.488;2023-04-19T12:01:22;-0.48;36.88
60242;SHT30;46103;52.076;113.488;2023-04-19T12:05:53;-0.50;36.72
60242;SHT30;46103;52.076;113.488;2023-04-19T12:10:10;-0.57;36.08
60242;SHT30;46103;52.076;113.488;2023-04-19T12:28:29;-0.94;34.47
60242;SHT30;46103;52.076;113.488;2023-04-19T12:37:12;-1.00;35.01
60242;SHT30;46103;52.076;113.488;2023-04-19T12:40:36;-1.01;34.56
60242;SHT30;46103;52.076;113.488;2023-04-19T12:48:41;-1.19;34.94
60242;SHT30;46103;52.076;113.488;2023-04-19T12:52:07;-1.19;34.96
60242;SHT30;46103;52.076;113.488;2023-04-19T12:55:39;-1.25;34.39
60242;SHT30;46103;52.076;113.488;2023-04-19T12:59:05;-1.21;34.61
60242;SHT30;46103;52.076;113.488;2023-04-19T13:03:11;-1.28;34.33
60242;SHT30;46103;52.076;113.488;2023-04-19T13:06:37;-1.32;34.68
60242;SHT30;46103;52.076;113.488;2023-04-19T13:09:56;-1.35;34.32
60242;SHT30;46103;52.076;113.488;2023-04-19T13:14:27;-1.42;33.74
60242;SHT30;46103;52.076;113.488;2023-04-19T13:18:50;-1.52;33.83
60242;SHT30;46103;52.076;113.488;2023-04-19T13:23:08;-1.53;34.53
60242;SHT30;46103;52.076;113.488;2023-04-19T13:26:28;-1.49;34.36
60242;SHT30;46103;52.076;113.488;2023-04-19T13:30:19;-1.46;35.11
60242;SHT30;46103;52.076;113.488;2023-04-19T13:34:28;-1.52;33.86
60242;SHT30;46103;52.076;113.488;2023-04-19T13:37:46;-1.55;33.39
60242;SHT30;46103;52.076;113.488;2023-04-19T13:41:25;-1.67;33.58
60242;SHT30;46103;52.076;113.488;2023-04-19T13:45:36;-1.74;33.40
60242;SHT30;46103;52.076;113.488;2023-04-19T13:49:23;-1.90;32.97
60242;SHT30;46103;52.076;113.488;2023-04-19T13:53:05;-1.94;33.72
60242;SHT30;46103;52.076;113.488;2023-04-19T13:56:12;-1.94;33.30
60242;SHT30;46103;52.076;113.488;2023-04-19T13:59:45;-1.89;33.00
60242;SHT30;46103;52.076;113.488;2023-04-19T14:03:08;-1.87;32.80
60242;SHT30;46103;52.076;113.488;2023-04-19T14:06:27;-1.86;33.22
60242;SHT30;46103;52.076;113.488;2023-04-19T14:10:55;-1.95;32.48
60242;SHT30;46103;52.076;113.488;2023-04-19T14:20:30;-2.01;32.36
60242;SHT30;46103;52.076;113.488;2023-04-19T14:24:17;-2.00;32.63
60242;SHT30;46103;52.076;113.488;2023-04-19T14:27:35;-2.14;31.02
60242;SHT30;46103;52.076;113.488;2023-04-19T14:30:44;-2.25;31.51
60242;SHT30;46103;52.076;113.488;2023-04-19T14:33:47;-2.24;31.62
60242;SHT30;46103;52.076;113.488;2023-04-19T14:37:22;-2.28;31.50
60242;SHT30;46103;52.076;113.488;2023-04-19T14:41:39;-2.15;31.71
60242;SHT30;46103;52.076;113.488;2023-04-19T14:45:30;-2.12;30.78
60242;SHT30;46103;52.076;113.488;2023-04-19T14:49:25;-2.21;31.16
60242;SHT30;46103;52.076;113.488;2023-04-19T14:53:07;-2.22;30.41
60242;SHT30;46103;52.076;113.488;2023-04-19T14:56:21;-2.21;30.48
60242;SHT30;46103;52.076;113.488;2023-04-19T14:59:26;-2.21;30.83
60242;SHT30;46103;52.076;113.488;2023-04-19T15:02:57;-2.15;30.85
60242;SHT30;46103;52.076;113.488;2023-04-19T15:06:04;-2.11;29.90
60242;SHT30;46103;52.076;113.488;2023-04-19T15:09:11;-2.17;30.59
60242;SHT30;46103;52.076;113.488;2023-04-19T15:12:19;-2.22;29.69
60242;SHT30;46103;52.076;113.488;2023-04-19T15:15:29;-2.15;30.43
60242;SHT30;46103;52.076;113.488;2023-04-19T15:19:16;-2.15;29.36
60242;SHT30;46103;52.076;113.488;2023-04-19T15:22:27;-2.18;29.67
60242;SHT30;46103;52.076;113.488;2023-04-19T15:25:33;-2.27;29.45
60242;SHT30;46103;52.076;113.488;2023-04-19T15:28:38;-2.25;29.96
60242;SHT30;46103;52.076;113.488;2023-04-19T15:31:44;-2.36;29.84
60242;SHT30;46103;52.076;113.488;2023-04-19T15:34:51;-2.48;29.30
60242;SHT30;46103;52.076;113.488;2023-04-19T15:38:05;-2.45;30.33
60242;SHT30;46103;52.076;113.488;2023-04-19T15:41:13;-2.48;30.38
60242;SHT30;46103;52.076;113.488;2023-04-19T15:44:21;-2.55;29.73
60242;SHT30;46103;52.076;113.488;2023-04-19T15:47:29;-2.56;29.55
60242;SHT30;46103;52.076;113.488;2023-04-19T15:50:38;-2.57;29.14
60242;SHT30;46103;52.076;113.488;2023-04-19T15:53:47;-2.72;29.58
60242;SHT30;46103;52.076;113.488;2023-04-19T15:56:54;-2.81;29.04
60242;SHT30;46103;52.076;113.488;2023-04-19T16:00:10;-2.86;29.99
60242;SHT30;46103;52.076;113.488;2023-04-19T16:03:19;-2.90;29.72
60242;SHT30;46103;52.076;113.488;2023-04-19T16:06:40;-2.98;28.31
60242;SHT30;46103;52.076;113.488;2023-04-19T16:09:50;-3.12;27.95
60242;SHT30;46103;52.076;113.488;2023-04-19T16:12:55;-3.14;28.93
60242;SHT30;46103;52.076;113.488;2023-04-19T16:16:15;-3.12;28.66
60242;SHT30;46103;52.076;113.488;2023-04-19T16:19:21;-3.14;29.99
60242;SHT30;46103;52.076;113.488;2023-04-19T16:22:31;-3.09;28.56
60242;SHT30;46103;52.076;113.488;2023-04-19T16:25:49;-3.08;28.72
60242;SHT30;46103;52.076;113.488;2023-04-19T16:29:01;-3.12;28.11
60242;SHT30;46103;52.076;113.488;2023-04-19T16:32:07;-3.27;27.43
60242;SHT30;46103;52.076;113.488;2023-04-19T16:35:18;-3.27;27.89
60242;SHT30;46103;52.076;113.488;2023-04-19T16:38:25;-3.27;27.36
60242;SHT30;46103;52.076;113.488;2023-04-19T16:41:31;-3.38;26.95
60242;SHT30;46103;52.076;113.488;2023-04-19T16:44:45;-3.38;27.48
60242;SHT30;46103;52.076;113.488;2023-04-19T16:48:16;-3.43;26.10
60242;SHT30;46103;52.076;113.488;2023-04-19T16:51:22;-3.42;26.73
60242;SHT30;46103;52.076;113.488;2023-04-19T16:54:28;-3.41;26.91
60242;SHT30;46103;52.076;113.488;2023-04-19T16:57:35;-3.48;26.94
60242;SHT30;46103;52.076;113.488;2023-04-19T17:00:41;-3.48;27.36
60242;SHT30;46103;52.076;113.488;2023-04-19T17:04:16;-3.56;26.43
60242;SHT30;46103;52.076;113.488;2023-04-19T17:07:28;-3.56;26.34
60242;SHT30;46103;52.076;113.488;2023-04-19T17:10:50;-3.60;26.28
60242;SHT30;46103;52.076;113.488;2023-04-19T17:13:57;-3.62;27.50
60242;SHT30;46103;52.076;113.488;2023-04-19T17:17:10;-3.66;26.84
60242;SHT30;46103;52.076;113.488;2023-04-19T17:20:17;-3.67;26.05
60242;SHT30;46103;52.076;113.488;2023-04-19T17:23:22;-3.74;25.57
60242;SHT30;46103;52.076;113.488;2023-04-19T17:26:33;-3.74;26.44
60242;SHT30;46103;52.076;113.488;2023-04-19T17:29:38;-3.73;27.38
60242;SHT30;46103;52.076;113.488;2023-04-19T17:32:58;-3.76;24.98
60242;SHT30;46103;52.076;113.488;2023-04-19T17:36:05;-3.70;25.01
60242;SHT30;46103;52.076;113.488;2023-04-19T17:39:15;-3.77;25.96
60242;SHT30;46103;52.076;113.488;2023-04-19T17:42:23;-3.77;26.84
60242;SHT30;46103;52.076;113.488;2023-04-19T17:45:29;-3.81;26.13
60242;SHT30;46103;52.076;113.488;2023-04-19T17:48:34;-3.81;25.70
60242;SHT30;46103;52.076;113.488;2023-04-19T17:51:56;-3.79;25.84
60242;SHT30;46103;52.076;113.488;2023-04-19T17:55:05;-3.73;25.34
60242;SHT30;46103;52.076;113.488;2023-04-19T17:58:11;-3.77;25.30
60242;SHT30;46103;52.076;113.488;2023-04-19T18:01:16;-3.83;25.42
60242;SHT30;46103;52.076;113.488;2023-04-19T18:04:22;-3.87;25.81
60242;SHT30;46103;52.076;113.488;2023-04-19T18:07:28;-3.80;24.49
60242;SHT30;46103;52.076;113.488;2023-04-19T18:10:33;-3.83;25.22
60242;SHT30;46103;52.076;113.488;2023-04-19T18:13:39;-3.93;23.95
60242;SHT30;46103;52.076;113.488;2023-04-19T18:16:57;-4.02;24.12
60242;SHT30;46103;52.076;113.488;2023-04-19T18:20:17;-4.05;24.13
60242;SHT30;46103;52.076;113.488;2023-04-19T18:23:23;-4.04;21.97
60242;SHT30;46103;52.076;113.488;2023-04-19T18:26:41;-4.07;22.40
60242;SHT30;46103;52.076;113.488;2023-04-19T18:29:50;-4.08;21.90
60242;SHT30;46103;52.076;113.488;2023-04-19T18:33:08;-4.29;24.38
60242;SHT30;46103;52.076;113.488;2023-04-19T18:36:18;-4.35;22.95
60242;SHT30;46103;52.076;113.488;2023-04-19T18:39:37;-4.33;22.89
60242;SHT30;46103;52.076;113.488;2023-04-19T18:42:42;-4.35;23.17
60242;SHT30;46103;52.076;113.488;2023-04-19T18:46:05;-4.33;22.35
60242;SHT30;46103;52.076;113.488;2023-04-19T18:49:10;-4.38;21.49
60242;SHT30;46103;52.076;113.488;2023-04-19T18:52:16;-4.44;23.77
60242;SHT30;46103;52.076;113.488;2023-04-19T18:55:28;-4.62;22.49
60242;SHT30;46103;52.076;113.488;2023-04-19T18:58:36;-4.66;24.03
60242;SHT30;46103;52.076;113.488;2023-04-19T19:01:42;-4.72;25.70
60242;SHT30;46103;52.076;113.488;2023-04-19T19:05:03;-4.85;24.99
60242;SHT30;46103;52.076;113.488;2023-04-19T19:08:25;-5.00;24.76
60242;SHT30;46103;52.076;113.488;2023-04-19T19:11:50;-5.00;25.45
60242;SHT30;46103;52.076;113.488;2023-04-19T19:15:01;-5.08;25.43
60242;SHT30;46103;52.076;113.488;2023-04-19T19:18:07;-5.14;25.60
60242;SHT30;46103;52.076;113.488;2023-04-19T19:21:12;-5.18;25.65
60242;SHT30;46103;52.076;113.488;2023-04-19T19:24:21;-5.23;26.20
60242;SHT30;46103;52.076;113.488;2023-04-19T19:27:32;-5.26;26.01
60242;SHT30;46103;52.076;113.488;2023-04-19T19:30:53;-5.31;26.78
60242;SHT30;46103;52.076;113.488;2023-04-19T19:33:59;-5.32;25.74
60242;SHT30;46103;52.076;113.488;2023-04-19T19:37:25;-5.33;26.32
60242;SHT30;46103;52.076;113.488;2023-04-19T19:40:45;-5.33;26.32
60242;SHT30;46103;52.076;113.488;2023-04-19T19:44:11;-5.40;25.49
60242;SHT30;46103;52.076;113.488;2023-04-19T19:47:37;-5.36;24.94
60242;SHT30;46103;52.076;113.488;2023-04-19T19:50:49;-5.35;23.52
60242;SHT30;46103;52.076;113.488;2023-04-19T19:53:57;-5.18;23.55
60242;SHT30;46103;52.076;113.488;2023-04-19T19:57:16;-5.28;23.73
60242;SHT30;46103;52.076;113.488;2023-04-19T20:00:42;-5.32;24.10
60242;SHT30;46103;52.076;113.488;2023-04-19T20:03:56;-5.29;23.74
60242;SHT30;46103;52.076;113.488;2023-04-19T20:07:06;-5.28;23.63
60242;SHT30;46103;52.076;113.488;2023-04-19T20:10:17;-5.32;24.26
60242;SHT30;46103;52.076;113.488;2023-04-19T20:13:23;-5.40;25.79
60242;SHT30;46103;52.076;113.488;2023-04-19T20:16:42;-5.38;24.54
60242;SHT30;46103;52.076;113.488;2023-04-19T20:19:49;-5.43;25.54
60242;SHT30;46103;52.076;113.488;2023-04-19T20:23:00;-5.48;25.53
60242;SHT30;46103;52.076;113.488;2023-04-19T20:26:07;-5.39;23.94
60242;SHT30;46103;52.076;113.488;2023-04-19T20:29:14;-5.39;23.68
60242;SHT30;46103;52.076;113.488;2023-04-19T20:32:36;-5.36;23.35
60242;SHT30;46103;52.076;113.488;2023-04-19T20:36:16;-5.42;25.05
60242;SHT30;46103;52.076;113.488;2023-04-19T20:39:35;-5.49;24.67
60242;SHT30;46103;52.076;113.488;2023-04-19T20:42:43;-5.53;25.25
60242;SHT30;46103;52.076;113.488;2023-04-19T20:45:51;-5.53;24.00
60242;SHT30;46103;52.076;113.488;2023-04-19T20:49:00;-5.63;25.07